Time,TemperatureF,DewpointF,PressureIn,WindDirection,WindDirectionDegrees,WindSpeedMPH,WindSpeedGustMPH,Humidity,HourlyPrecipIn,Conditions,Clouds,dailyrainin,SoftwareType,DateUTC
2013-06-13 00:02:00,76.9,71.0,24.22,South,188,0.0,0.0,82,0.00,,,0.00,Wunderground v.1.15,2013-06-13 05:02:00,
2013-06-13 00:07:00,76.7,70.8,24.22,South,187,0.0,0.0,82,0.00,,,0.00,Wunderground v.1.15,2013-06-13 05:07:00,
2013-06-13 00:13:00,76.6,70.7,24.22,South,187,0.0,0.0,82,0.00,,,0.00,Wunderground v.1.15,2013-06-13 05:13:00,
2013-06-13 00:18:00,76.4,70.9,24.22,South,187,0.0,0.0,83,0.00,,,0.00,Wunderground v.1.15,2013-06-13 05:18:00,
2013-06-13 00:23:00,76.2,70.7,24.22,South,188,0.0,0.0,83,0.00,,,0.00,Wunderground v.1.15,2013-06-13 05:23:00,
2013-06-13 00:29:00,76.1,70.6,24.22,South,187,0.0,0.0,83,0.00,,,0.00,Wunderground v.1.15,2013-06-13 05:29:00,
2013-06-13 00:34:00,76.0,70.5,24.22,South,187,0.0,0.0,83,0.00,,,0.00,Wunderground v.1.15,2013-06-13 05:34:00,
2013-06-13 00:40:00,75.9,70.4,24.22,South,188,0.0,0.0,83,0.00,,,0.00,Wunderground v.1.15,2013-06-13 05:40:00,
2013-06-13 00:45:00,75.8,70.6,24.22,South,188,0.0,0.0,84,0.00,,,0.00,Wunderground v.1.15,2013-06-13 05:45:00,
2013-06-13 00:50:00,75.8,70.6,24.23,South,188,0.0,0.0,84,0.00,,,0.00,Wunderground v.1.15,2013-06-13 05:50:00,
2013-06-13 00:56:00,75.7,70.5,24.22,South,188,0.0,0.0,84,0.00,,,0.00,Wunderground v.1.15,2013-06-13 05:56:00,
2013-06-13 01:01:00,75.6,70.4,24.23,South,184,0.0,0.0,84,0.00,,,0.00,Wunderground v.1.15,2013-06-13 06:01:00,
2013-06-13 01:06:00,75.6,70.4,24.23,South,184,0.0,0.0,84,0.00,,,0.00,Wunderground v.1.15,2013-06-13 06:06:00,
2013-06-13 01:12:00,75.5,70.3,24.23,South,184,0.0,0.0,84,0.00,,,0.00,Wunderground v.1.15,2013-06-13 06:12:00,
2013-06-13 01:17:00,75.3,70.1,24.23,South,184,0.0,0.0,84,0.00,,,0.00,Wunderground v.1.15,2013-06-13 06:17:00,
2013-06-13 01:22:00,75.2,70.0,24.23,South,184,0.0,0.0,84,0.00,,,0.00,Wunderground v.1.15,2013-06-13 06:22:00,
2013-06-13 01:27:00,75.0,70.2,24.23,South,184,0.0,0.0,85,0.00,,,0.00,Wunderground v.1.15,2013-06-13 06:27:00,
2013-06-13 01:33:00,74.8,70.0,24.23,South,184,0.0,0.0,85,0.00,,,0.00,Wunderground v.1.15,2013-06-13 06:33:00,
2013-06-13 01:38:00,74.8,70.0,24.23,South,184,0.0,0.0,85,0.00,,,0.00,Wunderground v.1.15,2013-06-13 06:38:00,
2013-06-13 01:43:00,74.8,70.0,24.23,South,184,0.0,0.0,85,0.00,,,0.00,Wunderground v.1.15,2013-06-13 06:43:00,
2013-06-13 01:49:00,74.7,69.9,24.23,South,184,0.0,0.0,85,0.00,,,0.00,Wunderground v.1.15,2013-06-13 06:49:00,
2013-06-13 01:54:00,74.6,69.8,24.23,South,184,0.0,0.0,85,0.00,,,0.00,Wunderground v.1.15,2013-06-13 06:54:00,
2013-06-13 01:59:00,74.6,69.8,24.23,South,184,0.0,0.0,85,0.00,,,0.00,Wunderground v.1.15,2013-06-13 06:59:00,
2013-06-13 02:04:00,74.4,69.6,24.23,South,184,0.0,0.0,85,0.00,,,0.00,Wunderground v.1.15,2013-06-13 07:04:00,
2013-06-13 02:09:00,74.3,69.8,24.23,South,184,0.0,0.0,86,0.00,,,0.00,Wunderground v.1.15,2013-06-13 07:09:00,
2013-06-13 02:14:00,74.1,69.6,24.23,South,184,0.0,0.0,86,0.00,,,0.00,Wunderground v.1.15,2013-06-13 07:14:00,
2013-06-13 02:19:00,74.1,69.6,24.23,South,185,0.0,0.0,86,0.00,,,0.00,Wunderground v.1.15,2013-06-13 07:19:00,
2013-06-13 02:24:00,73.9,69.4,24.23,South,184,0.0,0.0,86,0.00,,,0.00,Wunderground v.1.15,2013-06-13 07:24:00,
2013-06-13 02:29:00,73.8,69.3,24.23,South,184,0.0,0.0,86,0.00,,,0.00,Wunderground v.1.15,2013-06-13 07:29:00,
2013-06-13 02:34:00,73.8,69.3,24.23,South,184,0.0,0.0,86,0.00,,,0.00,Wunderground v.1.15,2013-06-13 07:34:00,
2013-06-13 02:39:00,73.7,69.2,24.23,South,184,0.0,0.0,86,0.00,,,0.00,Wunderground v.1.15,2013-06-13 07:39:00,
2013-06-13 02:44:00,73.7,69.6,24.23,South,184,0.0,0.0,87,0.00,,,0.00,Wunderground v.1.15,2013-06-13 07:44:00,
2013-06-13 02:49:00,73.6,69.2,24.23,South,184,0.0,0.0,86,0.00,,,0.00,Wunderground v.1.15,2013-06-13 07:49:00,
2013-06-13 02:54:00,73.6,69.5,24.23,South,184,0.0,0.0,87,0.00,,,0.00,Wunderground v.1.15,2013-06-13 07:54:00,
2013-06-13 02:59:00,73.5,69.4,24.23,South,185,0.0,0.0,87,0.00,,,0.00,Wunderground v.1.15,2013-06-13 07:59:00,
2013-06-13 03:04:00,73.5,69.4,24.23,South,184,0.0,0.0,87,0.00,,,0.00,Wunderground v.1.15,2013-06-13 08:04:00,
2013-06-13 03:09:00,73.4,69.3,24.23,South,184,0.0,0.0,87,0.00,,,0.00,Wunderground v.1.15,2013-06-13 08:09:00,
2013-06-13 03:14:00,73.2,69.1,24.23,South,184,0.0,0.0,87,0.00,,,0.00,Wunderground v.1.15,2013-06-13 08:14:00,
2013-06-13 03:19:00,73.2,69.1,24.23,South,184,0.0,0.0,87,0.00,,,0.00,Wunderground v.1.15,2013-06-13 08:19:00,
2013-06-13 03:24:00,73.1,69.0,24.23,South,184,0.0,0.0,87,0.00,,,0.00,Wunderground v.1.15,2013-06-13 08:24:00,
2013-06-13 03:29:00,73.1,69.0,24.23,South,184,0.0,0.0,87,0.00,,,0.00,Wunderground v.1.15,2013-06-13 08:29:00,
2013-06-13 03:34:00,73.1,69.0,24.23,South,184,0.0,0.0,87,0.00,,,0.00,Wunderground v.1.15,2013-06-13 08:34:00,
2013-06-13 03:39:00,73.1,69.0,24.23,South,184,0.0,0.0,87,0.00,,,0.00,Wunderground v.1.15,2013-06-13 08:39:00,
2013-06-13 03:44:00,72.9,68.8,24.23,South,184,0.0,0.0,87,0.00,,,0.00,Wunderground v.1.15,2013-06-13 08:44:00,
2013-06-13 03:49:00,72.8,68.7,24.23,South,184,0.0,0.0,87,0.00,,,0.00,Wunderground v.1.15,2013-06-13 08:49:00,
2013-06-13 03:54:00,72.7,68.9,24.23,South,184,0.0,0.0,88,0.00,,,0.00,Wunderground v.1.15,2013-06-13 08:54:00,
2013-06-13 03:59:00,72.6,68.8,24.23,South,184,0.0,0.0,88,0.00,,,0.00,Wunderground v.1.15,2013-06-13 08:59:00,
2013-06-13 04:05:00,72.5,68.7,24.23,South,185,0.0,0.0,88,0.00,,,0.00,Wunderground v.1.15,2013-06-13 09:05:00,
2013-06-13 04:10:00,72.3,68.5,24.23,South,184,0.0,0.0,88,0.00,,,0.00,Wunderground v.1.15,2013-06-13 09:10:00,
2013-06-13 04:15:00,72.1,68.3,24.23,South,184,0.0,0.0,88,0.00,,,0.00,Wunderground v.1.15,2013-06-13 09:15:00,
2013-06-13 04:20:00,72.0,68.6,24.23,South,184,0.0,0.0,89,0.00,,,0.00,Wunderground v.1.15,2013-06-13 09:20:00,
2013-06-13 04:25:00,71.8,68.4,24.23,South,184,0.0,0.0,89,0.00,,,0.00,Wunderground v.1.15,2013-06-13 09:25:00,
2013-06-13 04:30:00,71.7,68.3,24.23,South,184,0.0,0.0,89,0.00,,,0.00,Wunderground v.1.15,2013-06-13 09:30:00,
2013-06-13 04:35:00,71.3,68.2,24.23,South,184,0.0,0.0,90,0.00,,,0.00,Wunderground v.1.15,2013-06-13 09:35:00,
2013-06-13 04:40:00,71.0,67.9,24.23,South,184,0.0,0.0,90,0.00,,,0.00,Wunderground v.1.15,2013-06-13 09:40:00,
2013-06-13 04:45:00,71.0,68.2,24.23,South,184,0.0,0.0,91,0.00,,,0.00,Wunderground v.1.15,2013-06-13 09:45:00,
2013-06-13 04:50:00,70.9,68.1,24.23,South,184,0.0,0.0,91,0.00,,,0.00,Wunderground v.1.15,2013-06-13 09:50:00,
2013-06-13 04:55:00,70.7,67.9,24.23,South,184,0.0,0.0,91,0.00,,,0.00,Wunderground v.1.15,2013-06-13 09:55:00,
2013-06-13 05:00:00,70.4,67.6,24.24,South,184,0.0,0.0,91,0.00,,,0.00,Wunderground v.1.15,2013-06-13 10:00:00,
2013-06-13 05:05:00,70.2,67.8,24.24,South,185,0.0,0.0,92,0.00,,,0.00,Wunderground v.1.15,2013-06-13 10:05:00,
2013-06-13 05:10:00,70.1,67.7,24.24,South,184,0.0,0.0,92,0.00,,,0.00,Wunderground v.1.15,2013-06-13 10:10:00,
2013-06-13 05:15:00,70.1,67.7,24.24,South,184,0.0,0.0,92,0.00,,,0.00,Wunderground v.1.15,2013-06-13 10:15:00,
2013-06-13 05:20:00,70.0,67.6,24.24,South,184,0.0,0.0,92,0.00,,,0.00,Wunderground v.1.15,2013-06-13 10:20:00,
2013-06-13 05:25:00,70.0,67.6,24.24,South,184,0.0,0.0,92,0.00,,,0.00,Wunderground v.1.15,2013-06-13 10:25:00,
2013-06-13 05:30:00,69.8,67.4,24.24,South,184,0.0,0.0,92,0.00,,,0.00,Wunderground v.1.15,2013-06-13 10:30:00,
2013-06-13 05:35:00,69.8,67.4,24.24,South,184,0.0,0.0,92,0.00,,,0.00,Wunderground v.1.15,2013-06-13 10:35:00,
2013-06-13 05:40:00,69.9,67.5,24.24,South,184,0.0,0.0,92,0.00,,,0.00,Wunderground v.1.15,2013-06-13 10:40:00,
2013-06-13 05:45:00,69.9,67.8,24.24,South,184,0.0,0.0,93,0.00,,,0.00,Wunderground v.1.15,2013-06-13 10:45:00,
2013-06-13 05:50:00,70.0,67.9,24.24,South,184,0.0,0.0,93,0.00,,,0.00,Wunderground v.1.15,2013-06-13 10:50:00,
2013-06-13 05:55:00,70.0,67.9,24.24,South,184,0.0,0.0,93,0.00,,,0.00,Wunderground v.1.15,2013-06-13 10:55:00,
2013-06-13 06:00:00,70.1,68.0,24.24,South,184,0.0,0.0,93,0.00,,,0.00,Wunderground v.1.15,2013-06-13 11:00:00,
2013-06-13 06:05:00,70.2,68.1,24.24,South,184,0.0,0.0,93,0.00,,,0.00,Wunderground v.1.15,2013-06-13 11:05:00,
2013-06-13 06:10:00,70.4,68.3,24.24,South,185,0.0,0.0,93,0.00,,,0.00,Wunderground v.1.15,2013-06-13 11:10:00,
2013-06-13 06:15:00,70.8,68.7,24.23,South,184,0.0,0.0,93,0.00,,,0.00,Wunderground v.1.15,2013-06-13 11:15:00,
2013-06-13 06:20:00,70.9,68.8,24.23,South,184,0.0,0.0,93,0.00,,,0.00,Wunderground v.1.15,2013-06-13 11:20:00,
2013-06-13 06:25:00,71.1,68.7,24.23,South,184,0.0,0.0,92,0.00,,,0.00,Wunderground v.1.15,2013-06-13 11:25:00,
2013-06-13 06:30:00,71.2,68.8,24.23,South,184,0.0,0.0,92,0.00,,,0.00,Wunderground v.1.15,2013-06-13 11:30:00,
2013-06-13 06:35:00,71.3,68.9,24.23,South,184,0.0,0.0,92,0.00,,,0.00,Wunderground v.1.15,2013-06-13 11:35:00,
2013-06-13 06:40:00,71.3,68.9,24.23,South,185,0.0,0.0,92,0.00,,,0.00,Wunderground v.1.15,2013-06-13 11:40:00,
2013-06-13 06:45:00,71.1,68.7,24.23,South,184,0.0,0.0,92,0.00,,,0.00,Wunderground v.1.15,2013-06-13 11:45:00,
2013-06-13 06:50:00,71.1,68.7,24.23,South,184,0.0,0.0,92,0.00,,,0.00,Wunderground v.1.15,2013-06-13 11:50:00,
2013-06-13 06:55:00,71.4,69.3,24.23,South,185,0.0,0.0,93,0.00,,,0.00,Wunderground v.1.15,2013-06-13 11:55:00,
2013-06-13 07:00:00,71.8,69.3,24.24,South,184,0.0,0.0,92,0.00,,,0.00,Wunderground v.1.15,2013-06-13 12:00:00,
2013-06-13 07:05:00,72.2,69.7,24.24,South,185,0.0,0.0,92,0.00,,,0.00,Wunderground v.1.15,2013-06-13 12:05:00,
2013-06-13 07:10:00,73.2,70.7,24.23,South,184,0.0,0.0,92,0.00,,,0.00,Wunderground v.1.15,2013-06-13 12:10:00,
2013-06-13 07:15:00,74.1,71.3,24.23,South,185,0.0,0.0,91,0.00,,,0.00,Wunderground v.1.15,2013-06-13 12:15:00,
2013-06-13 07:20:00,75.3,71.8,24.23,South,185,0.0,0.0,89,0.00,,,0.00,Wunderground v.1.15,2013-06-13 12:20:00,
2013-06-13 07:25:00,75.4,71.3,24.23,South,185,0.0,0.0,87,0.00,,,0.00,Wunderground v.1.15,2013-06-13 12:25:00,
2013-06-13 07:30:00,75.1,71.0,24.23,South,184,0.0,0.0,87,0.00,,,0.00,Wunderground v.1.15,2013-06-13 12:30:00,
2013-06-13 07:36:00,75.1,71.3,24.23,South,184,0.0,0.0,88,0.00,,,0.00,Wunderground v.1.15,2013-06-13 12:36:00,
2013-06-13 07:41:00,75.0,71.2,24.23,West,261,0.0,0.0,88,0.00,,,0.00,Wunderground v.1.15,2013-06-13 12:41:00,
2013-06-13 07:46:00,74.6,71.1,24.23,West,269,0.0,1.0,89,0.00,,,0.00,Wunderground v.1.15,2013-06-13 12:46:00,
2013-06-13 07:51:00,75.4,71.9,24.23,West,268,0.0,0.0,89,0.00,,,0.00,Wunderground v.1.15,2013-06-13 12:51:00,
2013-06-13 07:56:00,76.8,72.6,24.23,West,268,0.0,0.0,87,0.00,,,0.00,Wunderground v.1.15,2013-06-13 12:56:00,
2013-06-13 08:01:00,77.2,72.0,24.23,West,265,0.0,0.0,84,0.00,,,0.00,Wunderground v.1.15,2013-06-13 13:01:00,
2013-06-13 08:06:00,77.6,71.7,24.23,West,265,0.0,2.0,82,0.00,,,0.00,Wunderground v.1.15,2013-06-13 13:06:00,
2013-06-13 08:11:00,77.7,71.4,24.23,WNW,295,2.0,2.0,81,0.00,,,0.00,Wunderground v.1.15,2013-06-13 13:11:00,
2013-06-13 08:16:00,77.8,71.1,24.23,NW,305,0.0,3.0,80,0.00,,,0.00,Wunderground v.1.15,2013-06-13 13:16:00,
2013-06-13 08:21:00,78.2,71.2,24.23,WNW,296,0.0,1.0,79,0.00,,,0.00,Wunderground v.1.15,2013-06-13 13:21:00,
2013-06-13 08:26:00,78.3,70.5,24.24,SE,126,0.0,3.0,77,0.00,,,0.00,Wunderground v.1.15,2013-06-13 13:26:00,
2013-06-13 08:31:00,79.2,70.2,24.23,SE,125,0.0,0.0,74,0.00,,,0.00,Wunderground v.1.15,2013-06-13 13:31:00,
2013-06-13 08:36:00,79.2,70.2,24.23,SE,126,0.0,1.0,74,0.00,,,0.00,Wunderground v.1.15,2013-06-13 13:36:00,
2013-06-13 08:41:00,79.7,70.7,24.23,SE,126,0.0,0.0,74,0.00,,,0.00,Wunderground v.1.15,2013-06-13 13:41:00,
2013-06-13 08:46:00,79.9,69.7,24.23,SE,126,0.0,1.0,71,0.00,,,0.00,Wunderground v.1.15,2013-06-13 13:46:00,
2013-06-13 08:51:00,80.2,69.9,24.23,WNW,291,1.0,2.0,71,0.00,,,0.00,Wunderground v.1.15,2013-06-13 13:51:00,
2013-06-13 08:56:00,79.9,69.7,24.23,NW,316,0.0,3.0,71,0.00,,,0.00,Wunderground v.1.15,2013-06-13 13:56:00,
2013-06-13 09:01:00,80.6,69.5,24.23,WNW,284,0.0,2.0,69,0.00,,,0.00,Wunderground v.1.15,2013-06-13 14:01:00,
2013-06-13 09:06:00,81.9,70.3,24.23,WNW,287,0.0,2.0,68,0.00,,,0.00,Wunderground v.1.15,2013-06-13 14:06:00,
2013-06-13 09:11:00,81.5,70.3,24.23,WNW,284,1.0,2.0,69,0.00,,,0.00,Wunderground v.1.15,2013-06-13 14:11:00,
2013-06-13 09:16:00,81.6,70.9,24.23,SW,227,0.0,4.0,70,0.00,,,0.00,Wunderground v.1.15,2013-06-13 14:16:00,
2013-06-13 09:21:00,81.7,71.4,24.23,SE,128,0.0,0.0,71,0.00,,,0.00,Wunderground v.1.15,2013-06-13 14:21:00,
2013-06-13 09:26:00,80.8,69.2,24.23,SSE,150,0.0,1.0,68,0.00,,,0.00,Wunderground v.1.15,2013-06-13 14:26:00,
2013-06-13 09:31:00,80.6,69.9,24.23,SE,127,0.0,0.0,70,0.00,,,0.00,Wunderground v.1.15,2013-06-13 14:31:00,
2013-06-13 09:36:00,81.7,71.4,24.23,NW,309,1.0,2.0,71,0.00,,,0.00,Wunderground v.1.15,2013-06-13 14:36:00,
2013-06-13 09:41:00,81.0,69.9,24.23,ESE,116,0.0,4.0,69,0.00,,,0.00,Wunderground v.1.15,2013-06-13 14:41:00,
2013-06-13 09:47:00,81.8,70.6,24.23,ESE,116,0.0,4.0,69,0.00,,,0.00,Wunderground v.1.15,2013-06-13 14:47:00,
2013-06-13 09:52:00,82.6,71.0,24.23,ESE,115,0.0,1.0,68,0.00,,,0.00,Wunderground v.1.15,2013-06-13 14:52:00,
2013-06-13 09:57:00,83.9,72.6,24.23,ESE,115,0.0,1.0,69,0.00,,,0.00,Wunderground v.1.15,2013-06-13 14:57:00,
2013-06-13 10:02:00,82.5,70.0,24.23,East,88,1.0,3.0,66,0.00,,,0.00,Wunderground v.1.15,2013-06-13 15:02:00,
2013-06-13 10:07:00,82.2,71.9,24.24,East,89,0.0,3.0,71,0.00,,,0.00,Wunderground v.1.15,2013-06-13 15:07:00,
2013-06-13 10:12:00,83.2,71.1,24.23,East,88,0.0,1.0,67,0.00,,,0.00,Wunderground v.1.15,2013-06-13 15:12:00,
2013-06-13 10:17:00,85.0,72.4,24.23,East,88,0.0,1.0,66,0.00,,,0.00,Wunderground v.1.15,2013-06-13 15:17:00,
2013-06-13 10:22:00,83.7,71.6,24.24,East,88,0.0,0.0,67,0.00,,,0.00,Wunderground v.1.15,2013-06-13 15:22:00,
2013-06-13 10:27:00,84.1,70.1,24.23,NW,325,0.0,3.0,63,0.00,,,0.00,Wunderground v.1.15,2013-06-13 15:27:00,
2013-06-13 10:32:00,85.2,71.2,24.23,NW,326,1.0,1.0,63,0.00,,,0.00,Wunderground v.1.15,2013-06-13 15:32:00,
2013-06-13 10:37:00,85.4,72.3,24.23,NW,326,0.0,4.0,65,0.00,,,0.00,Wunderground v.1.15,2013-06-13 15:37:00,
2013-06-13 10:42:00,87.1,72.5,24.23,NW,326,0.0,2.0,62,0.00,,,0.00,Wunderground v.1.15,2013-06-13 15:42:00,
2013-06-13 10:47:00,84.9,70.9,24.23,NW,325,0.0,2.0,63,0.00,,,0.00,Wunderground v.1.15,2013-06-13 15:47:00,
2013-06-13 10:52:00,86.0,70.5,24.23,NW,325,1.0,2.0,60,0.00,,,0.00,Wunderground v.1.15,2013-06-13 15:52:00,
2013-06-13 10:57:00,85.2,71.2,24.23,NW,325,0.0,2.0,63,0.00,,,0.00,Wunderground v.1.15,2013-06-13 15:57:00,
2013-06-13 11:02:00,84.6,70.1,24.23,NW,322,1.0,2.0,62,0.00,,,0.00,Wunderground v.1.15,2013-06-13 16:02:00,
2013-06-13 11:07:00,85.6,70.1,24.23,NW,322,0.0,2.0,60,0.00,,,0.00,Wunderground v.1.15,2013-06-13 16:07:00,
2013-06-13 11:13:00,85.0,71.0,24.23,SSW,213,0.0,1.0,63,0.00,,,0.00,Wunderground v.1.15,2013-06-13 16:13:00,
2013-06-13 11:18:00,86.3,71.3,24.23,WSW,242,1.0,1.0,61,0.00,,,0.00,Wunderground v.1.15,2013-06-13 16:18:00,
2013-06-13 11:23:00,86.2,72.1,24.23,NNW,331,0.0,1.0,63,0.00,,,0.00,Wunderground v.1.15,2013-06-13 16:23:00,
2013-06-13 11:28:00,88.0,69.8,24.23,NNW,331,0.0,1.0,55,0.00,,,0.00,Wunderground v.1.15,2013-06-13 16:28:00,
2013-06-13 11:33:00,85.7,72.6,24.23,NNW,331,0.0,0.0,65,0.00,,,0.00,Wunderground v.1.15,2013-06-13 16:33:00,
2013-06-13 11:38:00,85.1,71.1,24.23,NE,39,0.0,1.0,63,0.00,,,0.00,Wunderground v.1.15,2013-06-13 16:38:00,
2013-06-13 11:43:00,86.7,71.6,24.22,NE,39,0.0,0.0,61,0.00,,,0.00,Wunderground v.1.15,2013-06-13 16:43:00,
2013-06-13 11:48:00,86.9,74.2,24.20,NE,39,0.0,1.0,66,0.00,,,0.00,Wunderground v.1.15,2013-06-13 16:48:00,
2013-06-13 11:53:00,88.1,73.0,24.09,NNW,331,0.0,1.0,61,0.00,,,0.00,Wunderground v.1.15,2013-06-13 16:53:00,
2013-06-13 11:58:00,86.8,72.7,24.09,ENE,71,0.0,3.0,63,0.00,,,0.00,Wunderground v.1.15,2013-06-13 16:58:00,
2013-06-13 12:03:00,88.2,72.1,24.31,NE,38,0.0,1.0,59,0.00,,,0.00,Wunderground v.1.15,2013-06-13 17:03:00,
2013-06-13 12:08:00,88.5,72.3,24.31,NE,37,0.0,1.0,59,0.00,,,0.00,Wunderground v.1.15,2013-06-13 17:08:00,
2013-06-13 12:13:00,88.8,75.0,24.31,NE,38,0.0,1.0,64,0.00,,,0.00,Wunderground v.1.15,2013-06-13 17:13:00,
2013-06-13 12:18:00,89.5,75.2,24.31,NE,38,0.0,1.0,63,0.00,,,0.00,Wunderground v.1.15,2013-06-13 17:18:00,
2013-06-13 12:23:00,89.5,72.8,24.30,NNW,343,0.0,1.0,58,0.00,,,0.00,Wunderground v.1.15,2013-06-13 17:23:00,
2013-06-13 12:28:00,89.4,73.2,24.30,NNW,329,0.0,5.0,59,0.00,,,0.00,Wunderground v.1.15,2013-06-13 17:28:00,
2013-06-13 12:33:00,88.3,70.6,24.23,NW,321,0.0,2.0,56,0.00,,,0.00,Wunderground v.1.15,2013-06-13 17:33:00,
2013-06-13 12:38:00,88.5,73.8,24.23,NNW,327,0.0,3.0,62,0.00,,,0.00,Wunderground v.1.15,2013-06-13 17:38:00,
2013-06-13 12:43:00,87.9,71.8,24.23,NW,326,0.0,1.0,59,0.00,,,0.00,Wunderground v.1.15,2013-06-13 17:43:00,
2013-06-13 12:48:00,89.1,71.9,24.23,NW,326,1.0,2.0,57,0.00,,,0.00,Wunderground v.1.15,2013-06-13 17:48:00,
2013-06-13 12:53:00,89.2,72.0,24.23,NNW,338,0.0,3.0,57,0.00,,,0.00,Wunderground v.1.15,2013-06-13 17:53:00,
2013-06-13 12:58:00,88.9,74.2,24.23,NW,322,1.0,3.0,62,0.00,,,0.00,Wunderground v.1.15,2013-06-13 17:58:00,
2013-06-13 13:03:00,89.5,72.3,24.23,NW,319,0.0,1.0,57,0.00,,,0.00,Wunderground v.1.15,2013-06-13 18:03:00,
2013-06-13 13:08:00,90.4,73.6,24.23,NW,319,0.0,1.0,58,0.00,,,0.00,Wunderground v.1.15,2013-06-13 18:08:00,
2013-06-13 13:13:00,89.6,74.9,24.23,NNW,327,2.0,2.0,62,0.00,,,0.00,Wunderground v.1.15,2013-06-13 18:13:00,
2013-06-13 13:18:00,89.7,72.4,24.23,NW,325,0.0,4.0,57,0.00,,,0.00,Wunderground v.1.15,2013-06-13 18:18:00,
2013-06-13 13:23:00,89.3,71.5,24.23,NW,317,1.0,2.0,56,0.00,,,0.00,Wunderground v.1.15,2013-06-13 18:23:00,
2013-06-13 13:28:00,89.0,69.1,24.23,NNW,333,0.0,5.0,52,0.00,,,0.00,Wunderground v.1.15,2013-06-13 18:28:00,
2013-06-13 13:33:00,89.2,71.5,24.23,NNW,333,0.0,1.0,56,0.00,,,0.00,Wunderground v.1.15,2013-06-13 18:33:00,
2013-06-13 13:38:00,89.8,72.0,24.23,NNW,333,0.0,1.0,56,0.00,,,0.00,Wunderground v.1.15,2013-06-13 18:38:00,
2013-06-13 13:43:00,89.3,72.1,24.23,NNW,333,0.0,0.0,57,0.00,,,0.00,Wunderground v.1.15,2013-06-13 18:43:00,
2013-06-13 13:48:00,88.6,70.9,24.23,NNW,333,0.0,3.0,56,0.00,,,0.00,Wunderground v.1.15,2013-06-13 18:48:00,
2013-06-13 13:53:00,89.5,72.3,24.23,WSW,240,0.0,1.0,57,0.00,,,0.00,Wunderground v.1.15,2013-06-13 18:53:00,
2013-06-13 13:58:00,90.1,70.1,24.23,SE,139,0.0,2.0,52,0.00,,,0.00,Wunderground v.1.15,2013-06-13 18:58:00,
2013-06-13 14:03:00,89.3,71.0,24.23,WNW,302,0.0,1.0,55,0.00,,,0.00,Wunderground v.1.15,2013-06-13 19:03:00,
2013-06-13 14:08:00,87.9,72.3,24.23,ESE,102,0.0,1.0,60,0.00,,,0.00,Wunderground v.1.15,2013-06-13 19:08:00,
2013-06-13 14:13:00,87.7,72.6,24.23,ESE,102,0.0,1.0,61,0.00,,,0.00,Wunderground v.1.15,2013-06-13 19:13:00,
2013-06-13 14:18:00,88.6,70.9,24.23,North,355,0.0,1.0,56,0.00,,,0.00,Wunderground v.1.15,2013-06-13 19:18:00,
2013-06-13 14:23:00,88.3,72.7,24.23,North,355,0.0,1.0,60,0.00,,,0.00,Wunderground v.1.15,2013-06-13 19:23:00,
2013-06-13 14:28:00,89.0,72.8,24.23,ESE,106,0.0,2.0,59,0.00,,,0.00,Wunderground v.1.15,2013-06-13 19:28:00,
2013-06-13 14:33:00,90.2,69.6,24.23,ESE,106,0.0,1.0,51,0.00,,,0.00,Wunderground v.1.15,2013-06-13 19:33:00,
2013-06-13 14:38:00,88.5,69.7,24.23,ESE,107,0.0,1.0,54,0.00,,,0.00,Wunderground v.1.15,2013-06-13 19:38:00,
2013-06-13 14:43:00,89.6,72.3,24.23,ESE,107,0.0,0.0,57,0.00,,,0.00,Wunderground v.1.15,2013-06-13 19:43:00,
2013-06-13 14:48:00,88.8,67.8,24.23,ESE,107,0.0,1.0,50,0.00,,,0.00,Wunderground v.1.15,2013-06-13 19:48:00,
2013-06-13 14:53:00,89.7,71.4,24.23,NW,323,0.0,3.0,55,0.00,,,0.00,Wunderground v.1.15,2013-06-13 19:53:00,
2013-06-13 14:58:00,90.0,68.3,24.23,NW,323,0.0,3.0,49,0.00,,,0.00,Wunderground v.1.15,2013-06-13 19:58:00,
2013-06-13 15:03:00,89.3,71.0,24.23,NW,323,0.0,0.0,55,0.00,,,0.00,Wunderground v.1.15,2013-06-13 20:03:00,
2013-06-13 15:08:00,88.9,70.1,24.23,NW,323,0.0,2.0,54,0.00,,,0.00,Wunderground v.1.15,2013-06-13 20:08:00,
2013-06-13 15:13:00,89.1,67.5,24.23,SW,236,0.0,1.0,49,0.00,,,0.00,Wunderground v.1.15,2013-06-13 20:13:00,
2013-06-13 15:18:00,88.4,67.4,24.23,SE,141,1.0,1.0,50,0.00,,,0.00,Wunderground v.1.15,2013-06-13 20:18:00,
2013-06-13 15:23:00,88.2,70.0,24.23,SE,136,0.0,1.0,55,0.00,,,0.00,Wunderground v.1.15,2013-06-13 20:23:00,
2013-06-13 15:28:00,87.7,66.2,24.23,SE,136,0.0,1.0,49,0.00,,,0.00,Wunderground v.1.15,2013-06-13 20:28:00,
2013-06-13 15:33:00,87.5,67.1,24.24,SE,136,0.0,1.0,51,0.00,,,0.00,Wunderground v.1.15,2013-06-13 20:33:00,
2013-06-13 15:38:00,88.7,65.9,24.23,NW,325,0.0,4.0,47,0.00,,,0.00,Wunderground v.1.15,2013-06-13 20:38:00,
2013-06-13 15:43:00,89.1,71.9,24.23,WNW,291,0.0,1.0,57,0.00,,,0.00,Wunderground v.1.15,2013-06-13 20:43:00,
2013-06-13 15:48:00,89.1,65.6,24.23,WNW,291,0.0,1.0,46,0.00,,,0.00,Wunderground v.1.15,2013-06-13 20:48:00,
2013-06-13 15:53:00,89.4,68.3,24.23,NW,311,2.0,3.0,50,0.00,,,0.00,Wunderground v.1.15,2013-06-13 20:53:00,